sensor_id;sensor_type;location;lat;lon;timestamp;pressure;altitude;pressure_sealevel;temperature;humidity
51876;BME280;34054;52.100;5.116;2024-01-11T00:00:14;103227.91;;;-1.51;73.84
51876;BME280;34054;52.100;5.116;2024-01-11T00:00:47;103227.16;;;-1.53;73.93
51876;BME280;34054;52.100;5.116;2024-01-11T00:01:18;103229.63;;;-1.50;74.20
51876;BME280;34054;52.100;5.116;2024-01-11T00:01:51;103226.47;;;-1.44;74.52
51876;BME280;34054;52.100;5.116;2024-01-11T00:02:22;103214.84;;;-1.54;74.68
51876;BME280;34054;52.100;5.116;2024-01-11T00:02:54;103219.91;;;-1.51;75.09
51876;BME280;34054;52.100;5.116;2024-01-11T00:03:25;103217.63;;;-1.44;74.80
51876;BME280;34054;52.100;5.116;2024-01-11T00:03:58;103215.31;;;-1.49;74.76
51876;BME280;34054;52.100;5.116;2024-01-11T00:04:30;103218.69;;;-1.58;75.06
51876;BME280;34054;52.100;5.116;2024-01-11T00:05:01;103222.22;;;-1.46;75.12
51876;BME280;34054;52.100;5.116;2024-01-11T00:05:33;103222.75;;;-1.41;74.89
51876;BME280;34054;52.100;5.116;2024-01-11T00:06:06;103218.59;;;-1.45;74.78
51876;BME280;34054;52.100;5.116;2024-01-11T00:06:40;103211.34;;;-1.43;74.77
51876;BME280;34054;52.100;5.116;2024-01-11T00:07:13;103219.94;;;-1.39;74.71
51876;BME280;34054;52.100;5.116;2024-01-11T00:07:45;103224.75;;;-1.45;74.75
51876;BME280;34054;52.100;5.116;2024-01-11T00:08:17;103223.94;;;-1.45;75.11
51876;BME280;34054;52.100;5.116;2024-01-11T00:08:48;103227.31;;;-1.54;74.96
51876;BME280;34054;52.100;5.116;2024-01-11T00:09:20;103224.41;;;-1.51;75.11
51876;BME280;34054;52.100;5.116;2024-01-11T00:09:52;103224.63;;;-1.54;75.49
51876;BME280;34054;52.100;5.116;2024-01-11T00:10:24;103219.09;;;-1.51;75.36
51876;BME280;34054;52.100;5.116;2024-01-11T00:10:55;103221.63;;;-1.50;75.49
51876;BME280;34054;52.100;5.116;2024-01-11T00:11:27;103226.38;;;-1.42;75.54
51876;BME280;34054;52.100;5.116;2024-01-11T00:11:59;103222.34;;;-1.48;75.19
51876;BME280;34054;52.100;5.116;2024-01-11T00:12:33;103217.38;;;-1.52;75.32
51876;BME280;34054;52.100;5.116;2024-01-11T00:13:05;103219.69;;;-1.48;75.43
51876;BME280;34054;52.100;5.116;2024-01-11T00:13:37;103214.47;;;-1.49;75.48
51876;BME280;34054;52.100;5.116;2024-01-11T00:14:09;103221.97;;;-1.54;75.59
51876;BME280;34054;52.100;5.116;2024-01-11T00:14:40;103220.03;;;-1.52;75.77
51876;BME280;34054;52.100;5.116;2024-01-11T00:15:12;103222.47;;;-1.49;75.73
51876;BME280;34054;52.100;5.116;2024-01-11T00:15:45;103218.47;;;-1.44;75.55
51876;BME280;34054;52.100;5.116;2024-01-11T00:16:16;103212.53;;;-1.47;75.39
51876;BME280;34054;52.100;5.116;2024-01-11T00:16:48;103220.31;;;-1.44;75.45
51876;BME280;34054;52.100;5.116;2024-01-11T00:17:20;103224.06;;;-1.47;75.47
51876;BME280;34054;52.100;5.116;2024-01-11T00:17:52;103219.78;;;-1.49;75.70
51876;BME280;34054;52.100;5.116;2024-01-11T00:18:23;103218.94;;;-1.50;75.60
51876;BME280;34054;52.100;5.116;2024-01-11T00:18:56;103223.44;;;-1.50;75.70
51876;BME280;34054;52.100;5.116;2024-01-11T00:19:28;103219.78;;;-1.49;75.67
51876;BME280;34054;52.100;5.116;2024-01-11T00:20:00;103220.44;;;-1.46;75.82
51876;BME280;34054;52.100;5.116;2024-01-11T00:20:32;103224.28;;;-1.50;76.01
51876;BME280;34054;52.100;5.116;2024-01-11T00:21:04;103219.19;;;-1.53;76.09
51876;BME280;34054;52.100;5.116;2024-01-11T00:21:36;103223.81;;;-1.55;75.85
51876;BME280;34054;52.100;5.116;2024-01-11T00:22:07;103224.63;;;-1.54;76.41
51876;BME280;34054;52.100;5.116;2024-01-11T00:22:39;103223.31;;;-1.49;75.89
51876;BME280;34054;52.100;5.116;2024-01-11T00:23:12;103221.97;;;-1.54;75.95
51876;BME280;34054;52.100;5.116;2024-01-11T00:23:43;103208.78;;;-1.56;75.79
51876;BME280;34054;52.100;5.116;2024-01-11T00:24:15;103217.38;;;-1.52;75.81
51876;BME280;34054;52.100;5.116;2024-01-11T00:24:47;103229.63;;;-1.50;75.57
51876;BME280;34054;52.100;5.116;2024-01-11T00:25:19;103218.13;;;-1.50;75.89
51876;BME280;34054;52.100;5.116;2024-01-11T00:25:51;103228.03;;;-1.52;76.01
51876;BME280;34054;52.100;5.116;2024-01-11T00:26:22;103213.50;;;-1.60;75.98
51876;BME280;34054;52.100;5.116;2024-01-11T00:26:54;103225.13;;;-1.49;76.08
51876;BME280;34054;52.100;5.116;2024-01-11T00:27:28;103218.47;;;-1.55;76.54
51876;BME280;34054;52.100;5.116;2024-01-11T00:27:59;103214.72;;;-1.52;76.26
51876;BME280;34054;52.100;5.116;2024-01-11T00:28:32;103216.75;;;-1.56;76.29
51876;BME280;34054;52.100;5.116;2024-01-11T00:29:05;103214.72;;;-1.52;76.58
51876;BME280;34054;52.100;5.116;2024-01-11T00:29:36;103214.19;;;-1.58;76.11
51876;BME280;34054;52.100;5.116;2024-01-11T00:30:08;103215.03;;;-1.68;75.49
51876;BME280;34054;52.100;5.116;2024-01-11T00:30:40;103212.56;;;-1.83;75.74
51876;BME280;34054;52.100;5.116;2024-01-11T00:31:12;103216.06;;;-1.82;76.00
51876;BME280;34054;52.100;5.116;2024-01-11T00:31:44;103216.88;;;-1.93;76.56
51876;BME280;34054;52.100;5.116;2024-01-11T00:32:16;103212.06;;;-1.88;77.01
51876;BME280;34054;52.100;5.116;2024-01-11T00:32:47;103198.97;;;-1.91;77.39
51876;BME280;34054;52.100;5.116;2024-01-11T00:33:19;103200.00;;;-1.81;77.40
51876;BME280;34054;52.100;5.116;2024-01-11T00:33:51;103201.34;;;-1.75;77.46
51876;BME280;34054;52.100;5.116;2024-01-11T00:34:23;103200.50;;;-1.64;77.32
51876;BME280;34054;52.100;5.116;2024-01-11T00:34:54;103201.88;;;-1.59;77.51
51876;BME280;34054;52.100;5.116;2024-01-11T00:35:26;103211.53;;;-1.58;77.29
51876;BME280;34054;52.100;5.116;2024-01-11T00:35:58;103202.84;;;-1.60;77.07
51876;BME280;34054;52.100;5.116;2024-01-11T00:36:30;103211.66;;;-1.59;76.93
51876;BME280;34054;52.100;5.116;2024-01-11T00:37:04;103206.06;;;-1.67;77.30
51876;BME280;34054;52.100;5.116;2024-01-11T00:37:35;103207.28;;;-1.71;77.39
51876;BME280;34054;52.100;5.116;2024-01-11T00:38:07;103203.28;;;-1.77;77.59
51876;BME280;34054;52.100;5.116;2024-01-11T00:38:40;103201.97;;;-1.71;78.03
51876;BME280;34054;52.100;5.116;2024-01-11T00:39:11;103202.44;;;-1.66;77.91
51876;BME280;34054;52.100;5.116;2024-01-11T00:39:43;103193.97;;;-1.71;77.75
51876;BME280;34054;52.100;5.116;2024-01-11T00:40:14;103199.66;;;-1.65;77.55
51876;BME280;34054;52.100;5.116;2024-01-11T00:40:47;103200.50;;;-1.64;77.43
51876;BME280;34054;52.100;5.116;2024-01-11T00:41:19;103201.47;;;-1.65;77.22
51876;BME280;34054;52.100;5.116;2024-01-11T00:41:50;103201.69;;;-1.68;77.23
51876;BME280;34054;52.100;5.116;2024-01-11T00:42:23;103207.84;;;-1.79;77.60
51876;BME280;34054;52.100;5.116;2024-01-11T00:42:56;103208.25;;;-1.72;78.00
51876;BME280;34054;52.100;5.116;2024-01-11T00:43:27;103203.88;;;-1.74;78.09
51876;BME280;34054;52.100;5.116;2024-01-11T00:43:59;103205.69;;;-1.74;78.31
51876;BME280;34054;52.100;5.116;2024-01-11T00:44:31;103202.06;;;-1.73;78.54
51876;BME280;34054;52.100;5.116;2024-01-11T00:45:04;103201.22;;;-1.74;78.20
51876;BME280;34054;52.100;5.116;2024-01-11T00:45:36;103192.63;;;-1.66;78.42
51876;BME280;34054;52.100;5.116;2024-01-11T00:46:08;103200.13;;;-1.71;78.48
51876;BME280;34054;52.100;5.116;2024-01-11T00:46:39;103197.13;;;-1.66;78.59
51876;BME280;34054;52.100;5.116;2024-01-11T00:47:12;103198.59;;;-1.62;78.47
51876;BME280;34054;52.100;5.116;2024-01-11T00:47:43;103191.31;;;-1.60;78.52
51876;BME280;34054;52.100;5.116;2024-01-11T00:48:15;103193.63;;;-1.55;78.64
51876;BME280;34054;52.100;5.116;2024-01-11T00:48:47;103204.19;;;-1.54;78.42
51876;BME280;34054;52.100;5.116;2024-01-11T00:49:19;103204.19;;;-1.54;78.52
51876;BME280;34054;52.100;5.116;2024-01-11T00:49:50;103200.03;;;-1.58;78.22
51876;BME280;34054;52.100;5.116;2024-01-11T00:50:23;103202.56;;;-1.56;78.20
51876;BME280;34054;52.100;5.116;2024-01-11T00:50:55;103200.38;;;-1.63;78.49
51876;BME280;34054;52.100;5.116;2024-01-11T00:51:27;103196.63;;;-1.60;78.50
51876;BME280;34054;52.100;5.116;2024-01-11T00:51:59;103196.53;;;-1.59;78.19
51876;BME280;34054;52.100;5.116;2024-01-11T00:52:31;103200.16;;;-1.60;78.35
51876;BME280;34054;52.100;5.116;2024-01-11T00:53:03;103203.19;;;-1.64;78.42
51876;BME280;34054;52.100;5.116;2024-01-11T00:53:35;103196.75;;;-1.62;78.52
51876;BME280;34054;52.100;5.116;2024-01-11T00:54:07;103188.03;;;-1.64;78.26
51876;BME280;34054;52.100;5.116;2024-01-11T00:54:39;103201.25;;;-1.62;78.24
51876;BME280;34054;52.100;5.116;2024-01-11T00:55:11;103199.28;;;-1.71;78.19
51876;BME280;34054;52.100;5.116;2024-01-11T00:55:43;103203.84;;;-1.85;79.23
51876;BME280;34054;52.100;5.116;2024-01-11T00:56:15;103188.59;;;-1.83;79.44
51876;BME280;34054;52.100;5.116;2024-01-11T00:56:48;103185.22;;;-1.74;79.61
51876;BME280;34054;52.100;5.116;2024-01-11T00:57:20;103178.94;;;-1.72;79.72
51876;BME280;34054;52.100;5.116;2024-01-11T00:57:51;103171.16;;;-1.76;79.44
51876;BME280;34054;52.100;5.116;2024-01-11T00:58:24;103181.13;;;-1.66;79.81
51876;BME280;34054;52.100;5.116;2024-01-11T00:58:57;103187.19;;;-1.64;79.75
51876;BME280;34054;52.100;5.116;2024-01-11T00:59:29;103184.75;;;-1.67;79.72
51876;BME280;34054;52.100;5.116;2024-01-11T01:00:00;103169.25;;;-1.74;79.81
51876;BME280;34054;52.100;5.116;2024-01-11T01:00:32;103188.16;;;-1.65;79.05
51876;BME280;34054;52.100;5.116;2024-01-11T01:01:08;103181.00;;;-1.76;79.35
51876;BME280;34054;52.100;5.116;2024-01-11T01:01:46;103192.34;;;-1.74;79.50
51876;BME280;34054;52.100;5.116;2024-01-11T01:02:20;103187.78;;;-1.72;79.61
51876;BME280;34054;52.100;5.116;2024-01-11T01:02:53;103189.81;;;-1.76;79.85
51876;BME280;34054;52.100;5.116;2024-01-11T01:03:25;103187.63;;;-1.70;80.07
51876;BME280;34054;52.100;5.116;2024-01-11T01:03:56;103184.75;;;-1.67;79.71
51876;BME280;34054;52.100;5.116;2024-01-11T01:04:29;103198.59;;;-1.62;80.05
51876;BME280;34054;52.100;5.116;2024-01-11T01:05:01;103188.91;;;-1.63;80.15
51876;BME280;34054;52.100;5.116;2024-01-11T01:05:34;103196.16;;;-1.65;80.14
51876;BME280;34054;52.100;5.116;2024-01-11T01:06:05;103189.38;;;-1.58;80.14
51876;BME280;34054;52.100;5.116;2024-01-11T01:06:37;103194.84;;;-1.60;79.99
51876;BME280;34054;52.100;5.116;2024-01-11T01:07:10;103196.72;;;-1.73;80.20
51876;BME280;34054;52.100;5.116;2024-01-11T01:07:41;103200.97;;;-1.70;80.58
51876;BME280;34054;52.100;5.116;2024-01-11T01:08:13;103176.50;;;-1.76;80.46
51876;BME280;34054;52.100;5.116;2024-01-11T01:08:44;103191.03;;;-1.68;80.61
51876;BME280;34054;52.100;5.116;2024-01-11T01:09:17;103191.53;;;-1.75;80.96
51876;BME280;34054;52.100;5.116;2024-01-11T01:09:48;103178.19;;;-1.75;80.78
51876;BME280;34054;52.100;5.116;2024-01-11T01:10:21;103197.59;;;-1.72;81.04
51876;BME280;34054;52.100;5.116;2024-01-11T01:10:52;103186.44;;;-1.66;81.00
51876;BME280;34054;52.100;5.116;2024-01-11T01:11:25;103196.16;;;-1.65;80.84
51876;BME280;34054;52.100;5.116;2024-01-11T01:11:57;103195.41;;;-1.67;80.90
51876;BME280;34054;52.100;5.116;2024-01-11T01:12:28;103197.72;;;-1.63;80.50
51876;BME280;34054;52.100;5.116;2024-01-11T01:13:00;103191.31;;;-1.60;80.48
51876;BME280;34054;52.100;5.116;2024-01-11T01:13:35;103200.03;;;-1.58;80.53
51876;BME280;34054;52.100;5.116;2024-01-11T01:14:06;103196.63;;;-1.60;80.02
51876;BME280;34054;52.100;5.116;2024-01-11T01:14:38;103203.19;;;-1.64;79.64
51876;BME280;34054;52.100;5.116;2024-01-11T01:15:09;103204.63;;;-1.71;80.19
51876;BME280;34054;52.100;5.116;2024-01-11T01:15:42;103213.56;;;-1.72;80.61
51876;BME280;34054;52.100;5.116;2024-01-11T01:16:13;103204.38;;;-1.68;80.79
51876;BME280;34054;52.100;5.116;2024-01-11T01:16:45;103202.78;;;-1.71;80.40
51876;BME280;34054;52.100;5.116;2024-01-11T01:17:17;103208.00;;;-1.69;80.58
51876;BME280;34054;52.100;5.116;2024-01-11T01:17:50;103205.06;;;-1.78;80.66
51876;BME280;34054;52.100;5.116;2024-01-11T01:18:21;103201.69;;;-1.80;80.47
51876;BME280;34054;52.100;5.116;2024-01-11T01:18:53;103196.72;;;-1.84;80.71
51876;BME280;34054;52.100;5.116;2024-01-11T01:19:24;103187.13;;;-1.87;81.09
51876;BME280;34054;52.100;5.116;2024-01-11T01:19:57;103200.81;;;-1.80;81.18
51876;BME280;34054;52.100;5.116;2024-01-11T01:20:28;103197.16;;;-1.91;81.44
51876;BME280;34054;52.100;5.116;2024-01-11T01:21:00;103195.56;;;-1.93;81.72
51876;BME280;34054;52.100;5.116;2024-01-11T01:21:31;103199.44;;;-1.97;81.82
51876;BME280;34054;52.100;5.116;2024-01-11T01:22:03;103191.72;;;-1.89;82.01
51876;BME280;34054;52.100;5.116;2024-01-11T01:22:36;103189.06;;;-1.89;82.12
51876;BME280;34054;52.100;5.116;2024-01-11T01:23:07;103196.66;;;-1.96;82.50
51876;BME280;34054;52.100;5.116;2024-01-11T01:23:39;103194.75;;;-1.94;82.72
51876;BME280;34054;52.100;5.116;2024-01-11T01:24:11;103190.38;;;-1.83;82.41
51876;BME280;34054;52.100;5.116;2024-01-11T01:24:43;103192.34;;;-1.74;82.64
51876;BME280;34054;52.100;5.116;2024-01-11T01:25:15;103190.16;;;-1.80;82.56
51876;BME280;34054;52.100;5.116;2024-01-11T01:25:46;103191.75;;;-1.78;82.52
51876;BME280;34054;52.100;5.116;2024-01-11T01:26:18;103193.63;;;-1.67;82.49
51876;BME280;34054;52.100;5.116;2024-01-11T01:26:51;103199.28;;;-1.71;82.50
51876;BME280;34054;52.100;5.116;2024-01-11T01:27:22;103184.00;;;-1.81;82.40
51876;BME280;34054;52.100;5.116;2024-01-11T01:27:54;103201.09;;;-1.72;82.33
51876;BME280;34054;52.100;5.116;2024-01-11T01:28:27;103195.63;;;-1.70;82.42
51876;BME280;34054;52.100;5.116;2024-01-11T01:29:01;103183.88;;;-1.79;82.14
51876;BME280;34054;52.100;5.116;2024-01-11T01:29:32;103203.75;;;-1.72;82.34
51876;BME280;34054;52.100;5.116;2024-01-11T01:30:06;103201.69;;;-1.80;82.19
51876;BME280;34054;52.100;5.116;2024-01-11T01:30:38;103204.00;;;-1.75;82.69
51876;BME280;34054;52.100;5.116;2024-01-11T01:31:09;103205.06;;;-1.78;82.45
51876;BME280;34054;52.100;5.116;2024-01-11T01:31:42;103199.50;;;-1.75;82.58
51876;BME280;34054;52.100;5.116;2024-01-11T01:32:13;103193.72;;;-1.68;82.38
51876;BME280;34054;52.100;5.116;2024-01-11T01:32:45;103195.72;;;-1.83;82.67
51876;BME280;34054;52.100;5.116;2024-01-11T01:33:17;103207.72;;;-1.78;82.69
51876;BME280;34054;52.100;5.116;2024-01-11T01:33:49;103198.78;;;-1.77;82.78
51876;BME280;34054;52.100;5.116;2024-01-11T01:34:21;103206.03;;;-1.79;83.06
51876;BME280;34054;52.100;5.116;2024-01-11T01:34:52;103199.47;;;-1.86;82.88
51876;BME280;34054;52.100;5.116;2024-01-11T01:35:24;103203.63;;;-1.82;83.08
51876;BME280;34054;52.100;5.116;2024-01-11T01:35:56;103210.88;;;-1.84;83.25
51876;BME280;34054;52.100;5.116;2024-01-11T01:36:28;103206.28;;;-1.82;83.14
51876;BME280;34054;52.100;5.116;2024-01-11T01:36:59;103203.88;;;-1.74;83.26
51876;BME280;34054;52.100;5.116;2024-01-11T01:37:31;103200.97;;;-1.70;82.82
51876;BME280;34054;52.100;5.116;2024-01-11T01:38:04;103207.63;;;-1.76;83.00
51876;BME280;34054;52.100;5.116;2024-01-11T01:38:36;103203.63;;;-1.82;82.99
51876;BME280;34054;52.100;5.116;2024-01-11T01:39:07;103203.63;;;-1.82;83.20
51876;BME280;34054;52.100;5.116;2024-01-11T01:39:39;103183.00;;;-1.91;83.52
51876;BME280;34054;52.100;5.116;2024-01-11T01:40:11;103205.31;;;-1.81;83.80
51876;BME280;34054;52.100;5.116;2024-01-11T01:40:43;103203.13;;;-1.76;83.74
51876;BME280;34054;52.100;5.116;2024-01-11T01:41:15;103197.81;;;-1.76;83.60
51876;BME280;34054;52.100;5.116;2024-01-11T01:41:46;103199.25;;;-1.83;83.78
51876;BME280;34054;52.100;5.116;2024-01-11T01:42:19;103207.47;;;-1.86;83.99
51876;BME280;34054;52.100;5.116;2024-01-11T01:42:57;103198.75;;;-1.88;84.09
51876;BME280;34054;52.100;5.116;2024-01-11T01:43:29;103190.53;;;-1.85;84.04
51876;BME280;34054;52.100;5.116;2024-01-11T01:44:04;103188.72;;;-1.84;84.11
51876;BME280;34054;52.100;5.116;2024-01-11T01:44:35;103183.34;;;-1.96;84.41
51876;BME280;34054;52.100;5.116;2024-01-11T01:45:08;103196.09;;;-1.88;84.46
51876;BME280;34054;52.100;5.116;2024-01-11T01:45:39;103200.06;;;-1.94;84.53
51876;BME280;34054;52.100;5.116;2024-01-11T01:46:15;103194.75;;;-1.94;85.00
51876;BME280;34054;52.100;5.116;2024-01-11T01:46:53;103196.66;;;-1.96;85.45
51876;BME280;34054;52.100;5.116;2024-01-11T01:47:25;103186.41;;;-1.89;84.96
51876;BME280;34054;52.100;5.116;2024-01-11T01:47:57;103189.28;;;-1.92;84.98
51876;BME280;34054;52.100;5.116;2024-01-11T01:48:30;103196.78;;;-1.97;85.35
51876;BME280;34054;52.100;5.116;2024-01-11T01:49:02;103186.00;;;-1.96;85.34
51876;BME280;34054;52.100;5.116;2024-01-11T01:49:35;103190.25;;;-1.93;85.60
51876;BME280;34054;52.100;5.116;2024-01-11T01:50:10;103198.13;;;-1.92;85.31
51876;BME280;34054;52.100;5.116;2024-01-11T01:50:43;103180.69;;;-1.96;85.65
51876;BME280;34054;52.100;5.116;2024-01-11T01:51:21;103189.50;;;-1.95;85.73
51876;BME280;34054;52.100;5.116;2024-01-11T01:51:54;103185.16;;;-1.96;86.14
51876;BME280;34054;52.100;5.116;2024-01-11T01:52:27;103177.19;;;-1.96;85.94
51876;BME280;34054;52.100;5.116;2024-01-11T01:53:00;103184.34;;;-1.85;85.97
51876;BME280;34054;52.100;5.116;2024-01-11T01:53:32;103177.94;;;-1.83;85.72
51876;BME280;34054;52.100;5.116;2024-01-11T01:54:05;103177.06;;;-1.83;84.80
51876;BME280;34054;52.100;5.116;2024-01-11T01:54:37;103194.13;;;-1.86;84.73
51876;BME280;34054;52.100;5.116;2024-01-11T01:55:10;103186.28;;;-1.87;84.90
51876;BME280;34054;52.100;5.116;2024-01-11T01:55:45;103195.22;;;-1.88;84.77
51876;BME280;34054;52.100;5.116;2024-01-11T01:56:19;103197.41;;;-1.94;85.18
51876;BME280;34054;52.100;5.116;2024-01-11T01:56:53;103195.91;;;-1.98;85.37
51876;BME280;34054;52.100;5.116;2024-01-11T01:57:25;103199.81;;;-1.91;85.37
51876;BME280;34054;52.100;5.116;2024-01-11T01:57:58;103192.66;;;-2.01;85.30
51876;BME280;34054;52.100;5.116;2024-01-11T01:58:33;103193.38;;;-1.99;85.98
51876;BME280;34054;52.100;5.116;2024-01-11T01:59:07;103204.84;;;-2.10;86.73
51876;BME280;34054;52.100;5.116;2024-01-11T01:59:41;103193.31;;;-2.11;87.03
51876;BME280;34054;52.100;5.116;2024-01-11T02:00:14;103190.44;;;-2.08;87.10
51876;BME280;34054;52.100;5.116;2024-01-11T02:00:48;103188.19;;;-2.01;87.41
51876;BME280;34054;52.100;5.116;2024-01-11T02:01:22;103181.50;;;-1.95;87.24
51876;BME280;34054;52.100;5.116;2024-01-11T02:01:54;103176.19;;;-1.95;86.92
51876;BME280;34054;52.100;5.116;2024-01-11T02:02:27;103185.16;;;-1.96;86.92
51876;BME280;34054;52.100;5.116;2024-01-11T02:03:01;103188.53;;;-2.06;87.51
51876;BME280;34054;52.100;5.116;2024-01-11T02:03:32;103189.34;;;-2.05;87.61
51876;BME280;34054;52.100;5.116;2024-01-11T02:04:07;103179.19;;;-2.00;87.45
51876;BME280;34054;52.100;5.116;2024-01-11T02:04:40;103186.47;;;-2.02;87.50
51876;BME280;34054;52.100;5.116;2024-01-11T02:05:13;103178.84;;;-2.07;87.59
51876;BME280;34054;52.100;5.116;2024-01-11T02:05:47;103187.78;;;-2.08;87.40
51876;BME280;34054;52.100;5.116;2024-01-11T02:06:20;103186.91;;;-2.08;87.49
51876;BME280;34054;52.100;5.116;2024-01-11T02:06:55;103183.63;;;-2.12;87.87
51876;BME280;34054;52.100;5.116;2024-01-11T02:07:27;103192.59;;;-2.13;88.37
51876;BME280;34054;52.100;5.116;2024-01-11T02:08:01;103190.25;;;-2.17;88.86
51876;BME280;34054;52.100;5.116;2024-01-11T02:08:40;103184.22;;;-2.19;89.29
51876;BME280;34054;52.100;5.116;2024-01-11T02:09:14;103184.59;;;-2.13;89.33
51876;BME280;34054;52.100;5.116;2024-01-11T02:09:47;103177.97;;;-2.07;89.61
51876;BME280;34054;52.100;5.116;2024-01-11T02:10:19;103183.03;;;-2.15;89.87
51876;BME280;34054;52.100;5.116;2024-01-11T02:10:52;103179.00;;;-2.21;90.85
51876;BME280;34054;52.100;5.116;2024-01-11T02:11:24;103172.72;;;-2.20;90.87
51876;BME280;34054;52.100;5.116;2024-01-11T02:11:56;103171.19;;;-2.11;91.00
51876;BME280;34054;52.100;5.116;2024-01-11T02:12:29;103164.44;;;-2.04;90.70
51876;BME280;34054;52.100;5.116;2024-01-11T02:13:02;103167.50;;;-1.97;90.05
51876;BME280;34054;52.100;5.116;2024-01-11T02:13:34;103171.13;;;-1.98;89.95
51876;BME280;34054;52.100;5.116;2024-01-11T02:14:08;103168.19;;;-2.07;90.15
51876;BME280;34054;52.100;5.116;2024-01-11T02:14:42;103172.78;;;-2.09;90.26
51876;BME280;34054;52.100;5.116;2024-01-11T02:15:14;103176.59;;;-2.13;90.63
51876;BME280;34054;52.100;5.116;2024-01-11T02:15:46;103173.72;;;-2.10;90.62
51876;BME280;34054;52.100;5.116;2024-01-11T02:16:18;103172.38;;;-2.15;91.17
51876;BME280;34054;52.100;5.116;2024-01-11T02:16:50;103173.56;;;-2.19;91.17
51876;BME280;34054;52.100;5.116;2024-01-11T02:17:22;103173.56;;;-2.19;91.46
51876;BME280;34054;52.100;5.116;2024-01-11T02:17:53;103181.03;;;-2.25;91.71
51876;BME280;34054;52.100;5.116;2024-01-11T02:18:26;103176.47;;;-2.23;92.38
51876;BME280;34054;52.100;5.116;2024-01-11T02:18:57;103177.66;;;-2.27;92.49
51876;BME280;34054;52.100;5.116;2024-01-11T02:19:29;103164.16;;;-2.37;93.13
51876;BME280;34054;52.100;5.116;2024-01-11T02:20:01;103171.00;;;-2.21;92.72
51876;BME280;34054;52.100;5.116;2024-01-11T02:20:34;103172.50;;;-2.17;92.73
51876;BME280;34054;52.100;5.116;2024-01-11T02:21:11;103176.94;;;-2.17;92.82
51876;BME280;34054;52.100;5.116;2024-01-11T02:21:47;103176.47;;;-2.23;93.10
51876;BME280;34054;52.100;5.116;2024-01-11T02:22:23;103175.22;;;-2.30;93.78
51876;BME280;34054;52.100;5.116;2024-01-11T02:23:03;103169.56;;;-2.25;93.81
51876;BME280;34054;52.100;5.116;2024-01-11T02:23:43;103166.31;;;-2.17;93.92
51876;BME280;34054;52.100;5.116;2024-01-11T02:24:18;103168.75;;;-2.14;92.96
51876;BME280;34054;52.100;5.116;2024-01-11T02:24:51;103172.22;;;-2.25;92.28
51876;BME280;34054;52.100;5.116;2024-01-11T02:25:24;103174.59;;;-2.33;93.40
51876;BME280;34054;52.100;5.116;2024-01-11T02:25:55;103171.31;;;-2.37;93.90
51876;BME280;34054;52.100;5.116;2024-01-11T02:26:27;103169.63;;;-2.38;94.36
51876;BME280;34054;52.100;5.116;2024-01-11T02:27:01;103165.13;;;-2.38;95.10
51876;BME280;34054;52.100;5.116;2024-01-11T02:27:44;103160.94;;;-2.29;94.85
51876;BME280;34054;52.100;5.116;2024-01-11T02:28:17;103151.47;;;-2.33;95.33
51876;BME280;34054;52.100;5.116;2024-01-11T02:28:50;103160.94;;;-2.29;95.57
51876;BME280;34054;52.100;5.116;2024-01-11T02:29:21;103157.53;;;-2.31;95.16
51876;BME280;34054;52.100;5.116;2024-01-11T02:29:53;103162.53;;;-2.26;95.09
51876;BME280;34054;52.100;5.116;2024-01-11T02:30:25;103161.06;;;-2.30;95.80
51876;BME280;34054;52.100;5.116;2024-01-11T02:30:57;103160.06;;;-2.41;95.85
51876;BME280;34054;52.100;5.116;2024-01-11T02:31:28;103156.53;;;-2.41;96.50
51876;BME280;34054;52.100;5.116;2024-01-11T02:32:01;103154.81;;;-2.42;96.86
51876;BME280;34054;52.100;5.116;2024-01-11T02:32:34;103149.50;;;-2.42;97.26
51876;BME280;34054;52.100;5.116;2024-01-11T02:33:06;103144.28;;;-2.44;97.93
51876;BME280;34054;52.100;5.116;2024-01-11T02:33:38;103136.88;;;-2.52;98.33
51876;BME280;34054;52.100;5.116;2024-01-11T02:34:10;103136.53;;;-2.47;98.13
51876;BME280;34054;52.100;5.116;2024-01-11T02:34:42;103135.56;;;-2.46;97.99
51876;BME280;34054;52.100;5.116;2024-01-11T02:35:15;103130.50;;;-2.49;98.27
51876;BME280;34054;52.100;5.116;2024-01-11T02:35:48;103125.50;;;-2.54;98.74
51876;BME280;34054;52.100;5.116;2024-01-11T02:36:20;103129.28;;;-2.45;99.25
51876;BME280;34054;52.100;5.116;2024-01-11T02:36:52;103123.16;;;-2.34;99.14
51876;BME280;34054;52.100;5.116;2024-01-11T02:37:25;103126.34;;;-2.29;98.86
51876;BME280;34054;52.100;5.116;2024-01-11T02:37:57;103127.91;;;-2.26;98.76
51876;BME280;34054;52.100;5.116;2024-01-11T02:38:29;103131.06;;;-2.32;99.02
51876;BME280;34054;52.100;5.116;2024-01-11T02:39:01;103137.47;;;-2.35;99.19
51876;BME280;34054;52.100;5.116;2024-01-11T02:39:34;103134.56;;;-2.32;99.17
51876;BME280;34054;52.100;5.116;2024-01-11T02:40:08;103124.59;;;-2.41;98.95
51876;BME280;34054;52.100;5.116;2024-01-11T02:40:41;103128.94;;;-2.40;99.43
51876;BME280;34054;52.100;5.116;2024-01-11T02:41:16;103137.13;;;-2.30;99.61
51876;BME280;34054;52.100;5.116;2024-01-11T02:41:50;103135.50;;;-2.33;99.51
51876;BME280;34054;52.100;5.116;2024-01-11T02:42:23;103108.63;;;-2.41;99.64
51876;BME280;34054;52.100;5.116;2024-01-11T02:42:54;103131.47;;;-2.39;99.74
51876;BME280;34054;52.100;5.116;2024-01-11T02:43:26;103122.66;;;-2.39;100.00
51876;BME280;34054;52.100;5.116;2024-01-11T02:43:59;103132.97;;;-2.34;100.00
51876;BME280;34054;52.100;5.116;2024-01-11T02:44:33;103129.69;;;-2.38;100.00
51876;BME280;34054;52.100;5.116;2024-01-11T02:45:05;103127.50;;;-2.44;100.00
51876;BME280;34054;52.100;5.116;2024-01-11T02:45:38;103123.22;;;-2.47;100.00
51876;BME280;34054;52.100;5.116;2024-01-11T02:46:10;103120.19;;;-2.54;100.00
51876;BME280;34054;52.100;5.116;2024-01-11T02:46:42;103116.66;;;-2.54;100.00
51876;BME280;34054;52.100;5.116;2024-01-11T02:47:14;103123.00;;;-2.44;100.00
51876;BME280;34054;52.100;5.116;2024-01-11T02:47:45;103118.38;;;-2.53;100.00
51876;BME280;34054;52.100;5.116;2024-01-11T02:48:18;103118.66;;;-2.45;100.00
51876;BME280;34054;52.100;5.116;2024-01-11T02:48:49;103115.50;;;-2.39;100.00
51876;BME280;34054;52.100;5.116;2024-01-11T02:49:21;103115.50;;;-2.39;100.00
51876;BME280;34054;52.100;5.116;2024-01-11T02:49:53;103120.34;;;-2.44;100.00